< < Back
Terminal Aerodrome Forecast


Current Version              Previous Versions:   1  2  3  4  5  6  7  8  9  

Terminal Aerodrome Forecast

467
FTUS42 KFFC 310540
TAFCSG
TAF
KCSG 310540Z 3106/0106 00000KT P6SM FEW250
     FM311400 32004KT P6SM FEW050
     FM311800 VRB04KT P6SM SCT060
     FM010000 00000KT P6SM SCT100=

Latest METAR

949
SAUS70 KWBC 010000 RRI
MTRCSG
METAR KCSG 312351Z 22006KT 10SM FEW080 SCT090 32/15 A2987 RMK AO2 LTG
DSNT N SLP109 T03170150 10356 20317 53003


USA.gov is the U.S. government's official web portal to all federal, state and local government web resources and services.